新東京国際空港の過去48時間の天気

新東京国際空港 (Tokyo/New Tokyo Intl)

現在時刻: 9/19 07:49 JST (9/18 22:49 UTC) 以下の時間は現地時間です。

過去48時間のMETAR気象情報
時間 風向 風速(m/s) 視程 気温(℃) 湿度(%) 気圧(hPa) 天気現象
19 07:30 北北東 7 10km以上 22 94 1011
19 07:00 北北東 6 10km以上 22 88 1011
19 06:30 北北東 9 10km以上 22 88 1011
19 06:00 北北東 8 10km以上 22 88 1010
19 05:30 北北東 7 10km以上 21 94 1010
19 05:00 北北東 7 10km以上 21 100 1009 弱いしゅう雨
19 04:30 北北東 8 10km以上 21 100 1009
RJAA 182230Z 02014KT 9999 BKN012 BKN030 22/21 Q1011 BECMG FEW010 BKN020 TEMPO 02020G30KT RMK 5CU012 7CU030 A2988
RJAA 182200Z 03012KT 9999 FEW010 SCT015 BKN030 22/20 Q1011 TEMPO 02020G30KT RMK 1CU010 3CU015 7CU030 A2987
RJAA 182130Z 03017KT 9999 FEW010 SCT020 BKN030 22/20 Q1011 TEMPO 02020G30KT RMK 1CU010 4CU020 7CU030 A2986
RJAA 182100Z 02016KT 9999 FEW008 SCT010 BKN020 22/20 Q1010 TEMPO 02020G30KT RMK 1ST008 4CU010 7CU020 A2985
RJAA 182030Z 03014KT 9999 FEW008 BKN010 BKN020 21/20 Q1010 BECMG TL2200 FEW010 BKN020 TEMPO 02020G30KT RMK 1ST008 5CU010 7CU020 A2983
RJAA 182000Z 03014KT 9999 -SHRA FEW006 SCT009 BKN011 21/21 Q1009 TEMPO 02020G30KT RMK 1ST006 3ST009 7CU011 A2982
RJAA 181930Z 02016KT 9999 FEW006 BKN009 BKN015 21/21 Q1009 TEMPO 02020G30KT BECMG FEW008 BKN012 RMK 1ST006 5ST009 7CU015 A2981